Time;durP1;ratioP1;P1;durP2;ratioP2;P2;SDS_P1;SDS_P2;PMS_P1;PMS_P2;Temp;Humidity;BMP_temperature;BMP_pressure;BME280_temperature;BME280_humidity;BME280_pressure;Samples;Min_cycle;Max_cycle;Signal;HPM_P1;HPM_P2
2023/09/23 00:01:31;;;;;;;2.03;1.20;;;;;;;;;;4972190;28;20053;-77
2023/09/23 00:03:57;;;;;;;3.25;1.50;;;;;;;;;;4974897;28;20472;-77
2023/09/23 00:06:23;;;;;;;4.82;1.52;;;;;;;;;;4966641;28;20070;-75
2023/09/23 00:08:48;;;;;;;4.50;1.60;;;;;;;;;;4961204;28;21176;-75
2023/09/23 00:11:15;;;;;;;3.90;1.52;;;;;;;;;;4971288;28;20459;-75
2023/09/23 00:13:41;;;;;;;4.32;1.50;;;;;;;;;;4972535;28;20038;-75
2023/09/23 00:16:08;;;;;;;2.83;1.40;;;;;;;;;;4972084;28;20046;-75
2023/09/23 00:18:33;;;;;;;8.48;1.50;;;;;;;;;;4972388;28;20050;-75
2023/09/23 00:20:59;;;;;;;4.70;1.55;;;;;;;;;;4972129;28;20630;-75
2023/09/23 00:23:24;;;;;;;3.92;1.40;;;;;;;;;;4971722;28;20093;-75
2023/09/23 00:25:49;;;;;;;3.28;1.50;;;;;;;;;;4970957;28;20050;-75
2023/09/23 00:28:15;;;;;;;3.50;1.42;;;;;;;;;;4972017;28;20054;-75
2023/09/23 00:30:40;;;;;;;4.60;1.45;;;;;;;;;;4972143;28;20607;-75
2023/09/23 00:33:07;;;;;;;3.67;1.40;;;;;;;;;;4971568;28;20042;-75
2023/09/23 00:35:36;;;;;;;4.82;1.40;;;;;;;;;;4972043;28;20654;-75
2023/09/23 00:38:02;;;;;;;3.13;1.50;;;;;;;;;;4965127;28;20176;-75
2023/09/23 00:40:32;;;;;;;2.70;1.50;;;;;;;;;;4964190;28;20490;-75
2023/09/23 00:43:11;;;;;;;4.22;1.30;;;;;;;;;;4972203;28;20035;-75
2023/09/23 00:45:37;;;;;;;4.93;1.50;;;;;;;;;;4972447;28;20039;-78
2023/09/23 00:48:08;;;;;;;7.07;1.50;;;;;;;;;;4971500;28;20026;-76
2023/09/23 00:50:34;;;;;;;4.95;1.50;;;;;;;;;;4971648;28;20042;-75
2023/09/23 00:53:00;;;;;;;3.92;1.50;;;;;;;;;;4971318;28;20033;-75
2023/09/23 00:55:30;;;;;;;2.92;1.38;;;;;;;;;;4966504;28;20035;-75
2023/09/23 00:58:00;;;;;;;3.85;1.35;;;;;;;;;;4970394;28;20625;-75
2023/09/23 01:00:27;;;;;;;5.43;1.50;;;;;;;;;;4972069;28;20046;-76
2023/09/23 01:02:56;;;;;;;2.95;1.40;;;;;;;;;;4971192;28;20165;-75
2023/09/23 01:05:23;;;;;;;4.32;1.50;;;;;;;;;;4967398;28;20719;-75
2023/09/23 01:07:48;;;;;;;3.97;1.40;;;;;;;;;;4961140;28;20023;-78
2023/09/23 01:10:16;;;;;;;4.45;1.50;;;;;;;;;;4970840;28;20025;-76
2023/09/23 01:12:44;;;;;;;6.22;1.60;;;;;;;;;;4970970;28;20027;-77
2023/09/23 01:15:10;;;;;;;2.25;1.30;;;;;;;;;;4971459;28;20025;-77
2023/09/23 01:17:36;;;;;;;3.72;1.45;;;;;;;;;;4971175;28;20027;-77
2023/09/23 01:20:01;;;;;;;4.35;1.35;;;;;;;;;;4971108;28;20504;-78
2023/09/23 01:22:27;;;;;;;4.20;1.58;;;;;;;;;;4971272;28;20109;-77
2023/09/23 01:24:53;;;;;;;5.18;1.63;;;;;;;;;;4969059;28;20033;-77
2023/09/23 01:27:19;;;;;;;3.97;1.10;;;;;;;;;;4953999;28;20392;-79
2023/09/23 01:29:44;;;;;;;4.00;1.42;;;;;;;;;;4964053;28;20384;-79
2023/09/23 01:32:26;;;;;;;5.38;1.40;;;;;;;;;;4970304;28;20540;-78
2023/09/23 01:34:52;;;;;;;4.78;1.30;;;;;;;;;;4977311;28;20030;-78
2023/09/23 01:37:18;;;;;;;4.82;1.30;;;;;;;;;;4965485;28;20042;-78
2023/09/23 01:39:44;;;;;;;7.97;1.58;;;;;;;;;;4965003;28;20019;-79
2023/09/23 01:42:11;;;;;;;3.15;1.30;;;;;;;;;;4963433;28;20029;-79
2023/09/23 01:44:36;;;;;;;4.95;1.20;;;;;;;;;;4959928;28;20047;-79
2023/09/23 01:47:02;;;;;;;4.55;1.38;;;;;;;;;;4969838;28;20039;-79
2023/09/23 01:49:27;;;;;;;2.70;1.30;;;;;;;;;;4965513;28;20086;-79
2023/09/23 01:51:52;;;;;;;2.88;1.50;;;;;;;;;;4965898;28;20035;-79
2023/09/23 01:54:18;;;;;;;4.32;1.50;;;;;;;;;;4968006;28;20498;-78
2023/09/23 01:56:44;;;;;;;3.08;1.25;;;;;;;;;;4968992;28;20029;-78
2023/09/23 01:59:09;;;;;;;3.78;1.20;;;;;;;;;;4965418;28;20090;-79
2023/09/23 02:01:35;;;;;;;4.32;1.27;;;;;;;;;;4967785;28;20034;-79
2023/09/23 02:04:01;;;;;;;4.00;1.30;;;;;;;;;;4968595;28;20039;-78
2023/09/23 02:06:30;;;;;;;5.20;1.70;;;;;;;;;;4967622;28;20042;-78
2023/09/23 02:08:57;;;;;;;4.47;1.50;;;;;;;;;;4967748;28;20430;-79
2023/09/23 02:11:22;;;;;;;4.75;1.50;;;;;;;;;;4968079;28;20051;-79
2023/09/23 02:13:48;;;;;;;6.80;1.65;;;;;;;;;;4968370;28;20089;-79
2023/09/23 02:16:13;;;;;;;4.00;1.48;;;;;;;;;;4967951;28;20062;-79
2023/09/23 02:18:39;;;;;;;5.70;1.30;;;;;;;;;;4962285;28;20481;-79
2023/09/23 02:21:07;;;;;;;5.00;1.30;;;;;;;;;;4968840;28;20031;-78
2023/09/23 02:23:32;;;;;;;4.18;1.45;;;;;;;;;;4968091;28;20046;-79
2023/09/23 02:26:00;;;;;;;3.92;1.50;;;;;;;;;;4967537;28;20045;-78
2023/09/23 02:28:26;;;;;;;4.35;1.80;;;;;;;;;;4968926;28;20036;-79
2023/09/23 02:30:51;;;;;;;6.97;1.50;;;;;;;;;;4968211;28;20099;-79
2023/09/23 02:33:17;;;;;;;2.72;1.35;;;;;;;;;;4967421;28;20038;-79
2023/09/23 02:35:42;;;;;;;4.15;1.50;;;;;;;;;;4968863;28;20034;-78
2023/09/23 02:38:07;;;;;;;6.68;1.55;;;;;;;;;;4967423;28;20030;-78
2023/09/23 02:40:33;;;;;;;4.15;1.65;;;;;;;;;;4968605;28;20033;-79
2023/09/23 02:42:59;;;;;;;3.30;1.20;;;;;;;;;;4968285;28;20038;-80
2023/09/23 02:45:25;;;;;;;3.35;1.15;;;;;;;;;;4967689;28;20113;-79
2023/09/23 02:47:52;;;;;;;3.15;1.38;;;;;;;;;;4966860;28;20415;-79
2023/09/23 02:50:18;;;;;;;3.08;1.30;;;;;;;;;;4965599;28;20450;-79
2023/09/23 02:52:44;;;;;;;5.03;1.38;;;;;;;;;;4967103;28;20109;-79
2023/09/23 02:55:12;;;;;;;5.32;1.40;;;;;;;;;;4965547;28;20078;-80
2023/09/23 02:57:39;;;;;;;5.82;1.33;;;;;;;;;;4965645;28;20038;-78
2023/09/23 03:00:18;;;;;;;5.95;1.45;;;;;;;;;;4963649;28;20029;-79
2023/09/23 03:02:52;;;;;;;2.17;1.20;;;;;;;;;;4966084;28;20487;-79
2023/09/23 03:05:18;;;;;;;4.90;1.33;;;;;;;;;;4968529;28;20161;-79
2023/09/23 03:07:48;;;;;;;2.90;1.38;;;;;;;;;;4971451;28;20121;-79
2023/09/23 03:10:18;;;;;;;4.53;1.30;;;;;;;;;;4971534;28;20027;-78
2023/09/23 03:12:51;;;;;;;5.13;1.58;;;;;;;;;;4970491;28;20085;-79
2023/09/23 03:15:17;;;;;;;3.25;1.48;;;;;;;;;;4970458;28;20595;-79
2023/09/23 03:17:50;;;;;;;4.55;1.30;;;;;;;;;;4967200;28;20042;-79
2023/09/23 03:20:25;;;;;;;3.20;1.30;;;;;;;;;;4964672;28;20030;-78
2023/09/23 03:22:50;;;;;;;6.03;1.40;;;;;;;;;;4971375;28;20034;-79
2023/09/23 03:25:17;;;;;;;6.40;1.40;;;;;;;;;;4971138;28;20050;-79
2023/09/23 03:27:43;;;;;;;8.35;2.05;;;;;;;;;;4972023;28;20581;-79
2023/09/23 03:30:12;;;;;;;5.38;1.52;;;;;;;;;;4969776;28;20042;-79
2023/09/23 03:32:38;;;;;;;4.70;1.27;;;;;;;;;;4968777;28;20031;-78
2023/09/23 03:35:04;;;;;;;5.22;1.40;;;;;;;;;;4971861;28;20061;-79
2023/09/23 03:37:29;;;;;;;4.22;1.30;;;;;;;;;;4971108;28;20109;-79
2023/09/23 03:39:55;;;;;;;5.13;1.33;;;;;;;;;;4967119;28;20155;-79
2023/09/23 03:42:21;;;;;;;4.70;1.55;;;;;;;;;;4969417;28;20042;-79
2023/09/23 03:44:46;;;;;;;4.90;1.40;;;;;;;;;;4969904;28;20046;-79
2023/09/23 03:47:11;;;;;;;4.03;1.50;;;;;;;;;;4971283;28;20480;-79
2023/09/23 03:49:37;;;;;;;4.47;1.65;;;;;;;;;;4971215;28;20570;-79
2023/09/23 03:52:05;;;;;;;4.65;1.33;;;;;;;;;;4970827;28;20488;-79
2023/09/23 03:54:33;;;;;;;5.30;1.38;;;;;;;;;;4970698;28;20049;-80
2023/09/23 03:56:58;;;;;;;3.63;1.48;;;;;;;;;;4970240;28;20770;-78
2023/09/23 03:59:23;;;;;;;4.20;1.30;;;;;;;;;;4971140;28;20039;-79
2023/09/23 04:01:49;;;;;;;4.20;1.50;;;;;;;;;;4968600;28;20035;-80
2023/09/23 04:04:14;;;;;;;7.18;1.75;;;;;;;;;;4969461;28;20105;-80
2023/09/23 04:06:39;;;;;;;6.22;1.60;;;;;;;;;;4971055;28;20173;-79
2023/09/23 04:09:10;;;;;;;5.32;1.48;;;;;;;;;;4969859;28;20362;-79
2023/09/23 04:11:35;;;;;;;4.97;1.60;;;;;;;;;;4964033;28;20034;-79
2023/09/23 04:14:01;;;;;;;4.45;1.40;;;;;;;;;;4969907;28;20046;-79
2023/09/23 04:16:26;;;;;;;3.65;1.30;;;;;;;;;;4968655;28;20031;-78
2023/09/23 04:18:52;;;;;;;8.40;1.60;;;;;;;;;;4971084;28;20030;-79
2023/09/23 04:21:20;;;;;;;3.75;1.40;;;;;;;;;;4970079;28;20913;-79
2023/09/23 04:23:47;;;;;;;5.40;1.42;;;;;;;;;;4970512;28;20027;-79
2023/09/23 04:26:14;;;;;;;5.70;1.33;;;;;;;;;;4969673;28;20053;-79
2023/09/23 04:28:39;;;;;;;3.90;1.60;;;;;;;;;;4967949;28;20928;-79
2023/09/23 04:31:04;;;;;;;4.97;1.50;;;;;;;;;;4968684;28;20034;-79
2023/09/23 04:33:30;;;;;;;5.18;1.30;;;;;;;;;;4968039;28;20077;-79
2023/09/23 04:35:58;;;;;;;3.78;1.50;;;;;;;;;;4970455;28;20031;-79
2023/09/23 04:38:24;;;;;;;3.05;1.20;;;;;;;;;;4968296;28;20033;-79
2023/09/23 04:40:51;;;;;;;6.07;1.38;;;;;;;;;;4968406;28;20085;-79
2023/09/23 04:43:17;;;;;;;4.85;1.30;;;;;;;;;;4968598;28;20050;-79
2023/09/23 04:45:42;;;;;;;3.80;1.23;;;;;;;;;;4968177;28;20042;-79
2023/09/23 04:48:08;;;;;;;4.25;1.30;;;;;;;;;;4969486;28;20109;-79
2023/09/23 04:50:34;;;;;;;5.85;1.58;;;;;;;;;;4967191;28;20023;-79
2023/09/23 04:53:00;;;;;;;5.03;1.30;;;;;;;;;;4966989;28;20031;-79
2023/09/23 04:55:26;;;;;;;4.15;1.42;;;;;;;;;;4970182;28;20074;-79
2023/09/23 04:57:51;;;;;;;7.30;1.52;;;;;;;;;;4969307;28;20042;-79
2023/09/23 05:00:18;;;;;;;8.65;1.60;;;;;;;;;;4967731;28;20035;-79
2023/09/23 05:02:44;;;;;;;6.22;1.60;;;;;;;;;;4970109;28;20034;-78
2023/09/23 05:05:10;;;;;;;5.07;1.63;;;;;;;;;;4969696;28;20030;-78
2023/09/23 05:07:37;;;;;;;10.50;1.60;;;;;;;;;;4967363;28;20039;-79
2023/09/23 05:10:04;;;;;;;5.18;1.42;;;;;;;;;;4969926;28;20037;-79
2023/09/23 05:12:29;;;;;;;4.35;1.30;;;;;;;;;;4973414;28;20499;-79
2023/09/23 05:14:55;;;;;;;4.13;1.30;;;;;;;;;;4968943;28;20038;-79
2023/09/23 05:17:26;;;;;;;6.80;1.15;;;;;;;;;;4967798;28;20046;-78
2023/09/23 05:19:51;;;;;;;5.47;1.45;;;;;;;;;;4967756;28;20031;-78
2023/09/23 05:22:16;;;;;;;6.25;1.50;;;;;;;;;;4965829;28;20031;-77
2023/09/23 05:24:47;;;;;;;5.43;1.60;;;;;;;;;;4969467;28;20038;-78
2023/09/23 05:27:13;;;;;;;5.78;1.30;;;;;;;;;;4968408;28;20039;-78
2023/09/23 05:29:38;;;;;;;3.35;1.30;;;;;;;;;;4968177;28;20065;-77
2023/09/23 05:32:03;;;;;;;4.78;1.27;;;;;;;;;;4966511;28;20578;-77
2023/09/23 05:34:29;;;;;;;8.38;1.40;;;;;;;;;;4968252;28;20035;-78
2023/09/23 05:36:54;;;;;;;6.05;1.40;;;;;;;;;;4968334;28;20030;-78
2023/09/23 05:39:20;;;;;;;5.00;1.33;;;;;;;;;;4967156;28;20031;-78
2023/09/23 05:41:47;;;;;;;7.10;1.60;;;;;;;;;;4968492;28;20027;-78
2023/09/23 05:44:13;;;;;;;4.13;1.30;;;;;;;;;;4968518;28;20074;-78
2023/09/23 05:46:45;;;;;;;5.75;1.40;;;;;;;;;;4967005;28;20030;-78
2023/09/23 05:49:13;;;;;;;5.35;1.30;;;;;;;;;;4967480;28;20026;-78
2023/09/23 05:51:39;;;;;;;5.32;1.50;;;;;;;;;;4965471;28;20030;-78
2023/09/23 05:54:05;;;;;;;3.60;1.38;;;;;;;;;;4967545;28;20027;-78
2023/09/23 05:56:30;;;;;;;4.68;1.30;;;;;;;;;;4968552;28;20039;-78
2023/09/23 05:58:55;;;;;;;4.75;1.67;;;;;;;;;;4983437;28;20072;-80
2023/09/23 06:01:21;;;;;;;5.30;1.50;;;;;;;;;;4967026;28;20026;-77
2023/09/23 06:03:48;;;;;;;9.27;1.65;;;;;;;;;;4959507;28;20101;-78
2023/09/23 06:06:14;;;;;;;5.20;1.40;;;;;;;;;;4957356;28;20231;-78
2023/09/23 06:08:39;;;;;;;7.60;1.50;;;;;;;;;;4958850;28;20041;-78
2023/09/23 06:11:04;;;;;;;5.85;1.40;;;;;;;;;;4958618;28;20034;-78
2023/09/23 06:13:31;;;;;;;5.35;1.50;;;;;;;;;;4957678;28;20107;-78
2023/09/23 06:16:06;;;;;;;5.07;1.65;;;;;;;;;;4957361;28;20061;-78
2023/09/23 06:18:33;;;;;;;5.28;1.45;;;;;;;;;;4960267;28;20047;-78
2023/09/23 06:21:03;;;;;;;4.97;1.58;;;;;;;;;;4961339;28;20066;-78
2023/09/23 06:23:29;;;;;;;8.13;1.92;;;;;;;;;;4956051;28;20030;-78
2023/09/23 06:26:00;;;;;;;6.60;1.65;;;;;;;;;;4963861;28;20073;-78
2023/09/23 06:28:26;;;;;;;4.97;1.50;;;;;;;;;;4960121;28;20035;-77
2023/09/23 06:30:52;;;;;;;7.50;1.83;;;;;;;;;;4961117;28;20373;-78
2023/09/23 06:33:19;;;;;;;5.85;2.25;;;;;;;;;;4960143;28;20050;-77
2023/09/23 06:35:45;;;;;;;5.55;1.77;;;;;;;;;;4959885;28;20059;-78
2023/09/23 06:38:11;;;;;;;5.43;2.05;;;;;;;;;;4970504;28;20023;-77
2023/09/23 06:40:37;;;;;;;6.05;1.65;;;;;;;;;;4963261;28;20358;-77
2023/09/23 06:43:02;;;;;;;4.93;1.58;;;;;;;;;;4967144;28;20027;-78
2023/09/23 06:45:27;;;;;;;4.32;1.60;;;;;;;;;;4964226;28;20069;-78
2023/09/23 06:47:53;;;;;;;7.45;1.60;;;;;;;;;;4963265;28;20034;-78
2023/09/23 06:50:19;;;;;;;3.80;1.50;;;;;;;;;;4964238;28;20038;-78
2023/09/23 06:52:44;;;;;;;5.55;1.67;;;;;;;;;;4962939;28;20094;-77
2023/09/23 06:55:09;;;;;;;7.57;1.63;;;;;;;;;;4962528;28;20061;-78
2023/09/23 06:57:35;;;;;;;8.05;1.70;;;;;;;;;;4964410;28;20030;-78
2023/09/23 07:00:07;;;;;;;6.25;1.63;;;;;;;;;;4959329;28;20284;-78
2023/09/23 07:02:35;;;;;;;8.65;1.92;;;;;;;;;;4961002;28;20063;-78
2023/09/23 07:05:01;;;;;;;5.13;1.60;;;;;;;;;;4961596;28;20077;-78
2023/09/23 07:07:27;;;;;;;4.63;1.60;;;;;;;;;;4964477;28;20031;-78
2023/09/23 07:09:52;;;;;;;9.82;1.60;;;;;;;;;;4961767;28;20027;-78
2023/09/23 07:12:18;;;;;;;7.30;1.80;;;;;;;;;;4970047;28;20457;-78
2023/09/23 07:14:43;;;;;;;5.15;1.58;;;;;;;;;;4970617;28;20038;-78
2023/09/23 07:17:09;;;;;;;5.13;1.50;;;;;;;;;;4973896;28;20035;-77
2023/09/23 07:19:38;;;;;;;5.05;1.30;;;;;;;;;;4971529;28;20586;-77
2023/09/23 07:22:04;;;;;;;5.85;1.42;;;;;;;;;;4968451;28;20491;-79
2023/09/23 07:24:33;;;;;;;5.38;1.63;;;;;;;;;;4969092;28;20023;-79
2023/09/23 07:26:59;;;;;;;8.65;1.60;;;;;;;;;;4972598;28;20030;-77
2023/09/23 07:29:25;;;;;;;6.05;1.60;;;;;;;;;;4976698;28;20057;-79
2023/09/23 07:31:51;;;;;;;7.68;1.80;;;;;;;;;;4968297;28;20499;-80
2023/09/23 07:34:16;;;;;;;4.28;1.38;;;;;;;;;;4974144;28;20226;-80
2023/09/23 07:36:43;;;;;;;7.13;1.38;;;;;;;;;;4979924;28;20030;-80
2023/09/23 07:39:10;;;;;;;5.55;1.48;;;;;;;;;;4980658;28;20031;-80
2023/09/23 07:41:36;;;;;;;10.57;1.60;;;;;;;;;;4978573;28;20030;-80
2023/09/23 07:44:02;;;;;;;8.50;1.63;;;;;;;;;;4967587;28;20515;-78
2023/09/23 07:46:27;;;;;;;5.35;1.50;;;;;;;;;;4969171;28;20033;-78
2023/09/23 07:48:52;;;;;;;4.63;1.40;;;;;;;;;;4963201;28;20516;-80
2023/09/23 07:51:18;;;;;;;6.82;1.50;;;;;;;;;;4962548;28;20079;-77
2023/09/23 07:53:43;;;;;;;7.68;1.60;;;;;;;;;;4959530;28;20114;-77
2023/09/23 07:56:09;;;;;;;6.68;1.65;;;;;;;;;;4969082;28;20054;-77
2023/09/23 07:58:35;;;;;;;6.95;1.50;;;;;;;;;;4969965;28;20050;-77
2023/09/23 08:01:01;;;;;;;6.78;1.50;;;;;;;;;;4965623;28;20073;-77
2023/09/23 08:03:27;;;;;;;7.93;1.40;;;;;;;;;;4959796;28;20038;-77
2023/09/23 08:05:53;;;;;;;4.07;1.42;;;;;;;;;;4964004;28;20043;-76
2023/09/23 08:08:19;;;;;;;9.18;1.58;;;;;;;;;;4962034;28;20027;-76
2023/09/23 08:10:44;;;;;;;8.07;1.80;;;;;;;;;;4958673;28;20353;-75
2023/09/23 08:13:10;;;;;;;4.13;1.45;;;;;;;;;;4959460;28;20099;-75
2023/09/23 08:15:35;;;;;;;4.75;1.40;;;;;;;;;;4965193;28;20033;-78
2023/09/23 08:18:01;;;;;;;4.63;1.40;;;;;;;;;;4968507;28;20370;-76
2023/09/23 08:20:26;;;;;;;5.07;1.60;;;;;;;;;;4961575;28;20601;-76
2023/09/23 08:22:53;;;;;;;7.75;1.48;;;;;;;;;;4962041;28;20042;-76
2023/09/23 08:25:18;;;;;;;5.20;1.30;;;;;;;;;;4957381;28;20655;-75
2023/09/23 08:27:47;;;;;;;8.27;1.40;;;;;;;;;;4969450;28;20521;-78
2023/09/23 08:30:15;;;;;;;4.35;1.42;;;;;;;;;;4966640;28;20534;-78
2023/09/23 08:32:40;;;;;;;4.38;1.40;;;;;;;;;;4968436;28;20395;-75
2023/09/23 08:35:07;;;;;;;6.25;1.58;;;;;;;;;;4964335;28;20046;-75
2023/09/23 08:37:33;;;;;;;8.40;2.08;;;;;;;;;;4961059;28;20034;-75
2023/09/23 08:39:58;;;;;;;7.05;1.40;;;;;;;;;;4962466;28;20027;-76
2023/09/23 08:42:24;;;;;;;5.40;1.40;;;;;;;;;;4963734;28;20022;-77
2023/09/23 08:44:50;;;;;;;8.98;1.55;;;;;;;;;;4961655;28;20035;-77
2023/09/23 08:47:20;;;;;;;5.22;1.20;;;;;;;;;;4974547;28;20026;-76
2023/09/23 08:49:49;;;;;;;7.45;1.63;;;;;;;;;;4957043;28;20038;-76
2023/09/23 08:52:18;;;;;;;4.47;1.50;;;;;;;;;;4960831;28;20623;-76
2023/09/23 08:54:49;;;;;;;5.45;1.40;;;;;;;;;;4967493;28;20034;-76
2023/09/23 08:57:16;;;;;;;6.95;1.25;;;;;;;;;;4960290;28;20074;-76
2023/09/23 08:59:44;;;;;;;4.90;1.77;;;;;;;;;;4966608;28;20074;-77
2023/09/23 09:02:15;;;;;;;4.03;1.60;;;;;;;;;;4964315;28;20045;-76
2023/09/23 09:04:40;;;;;;;6.47;1.50;;;;;;;;;;4961618;28;20078;-76
2023/09/23 09:07:06;;;;;;;5.15;1.45;;;;;;;;;;4959700;28;20440;-77
2023/09/23 09:09:32;;;;;;;4.13;1.38;;;;;;;;;;4962892;28;20464;-77
2023/09/23 09:11:58;;;;;;;5.47;1.45;;;;;;;;;;4968093;28;20034;-77
2023/09/23 09:14:24;;;;;;;5.28;1.30;;;;;;;;;;4964065;28;20117;-77
2023/09/23 09:16:49;;;;;;;4.72;1.10;;;;;;;;;;4965569;28;20118;-77
2023/09/23 09:19:15;;;;;;;5.82;1.50;;;;;;;;;;4967172;28;20507;-77
2023/09/23 09:21:41;;;;;;;4.25;1.40;;;;;;;;;;4968565;28;20442;-77
2023/09/23 09:24:07;;;;;;;3.97;1.25;;;;;;;;;;4967586;28;20102;-76
2023/09/23 09:26:35;;;;;;;7.85;1.50;;;;;;;;;;4968396;28;20642;-77
2023/09/23 09:29:01;;;;;;;3.13;1.10;;;;;;;;;;4969416;28;20407;-76
2023/09/23 09:31:32;;;;;;;4.45;1.33;;;;;;;;;;4967957;28;20027;-77
2023/09/23 09:34:04;;;;;;;6.93;1.40;;;;;;;;;;4961480;28;20030;-78
2023/09/23 09:36:32;;;;;;;7.68;1.42;;;;;;;;;;4956731;28;20068;-77
2023/09/23 09:38:59;;;;;;;4.80;1.42;;;;;;;;;;4959090;28;20452;-77
2023/09/23 09:41:44;;;;;;;5.95;1.67;;;;;;;;;;4965344;28;20050;-78
2023/09/23 09:44:11;;;;;;;5.03;1.48;;;;;;;;;;4966566;28;20074;-78
2023/09/23 09:46:39;;;;;;;4.45;1.10;;;;;;;;;;4967137;28;20027;-77
2023/09/23 09:49:06;;;;;;;5.20;1.20;;;;;;;;;;4968118;28;20423;-78
2023/09/23 09:51:33;;;;;;;4.47;1.30;;;;;;;;;;4968102;28;20085;-78
2023/09/23 09:53:59;;;;;;;4.63;1.40;;;;;;;;;;4980683;28;20061;-79
2023/09/23 09:56:29;;;;;;;5.43;1.30;;;;;;;;;;4970710;28;20035;-78
2023/09/23 09:58:59;;;;;;;4.30;1.30;;;;;;;;;;4961962;28;20073;-80
2023/09/23 10:01:24;;;;;;;3.60;1.30;;;;;;;;;;4960959;28;20062;-79
2023/09/23 10:03:53;;;;;;;4.72;1.50;;;;;;;;;;4970460;28;20019;-79
2023/09/23 10:06:19;;;;;;;4.13;1.20;;;;;;;;;;4971492;28;20023;-80
2023/09/23 10:08:48;;;;;;;5.57;1.33;;;;;;;;;;4962468;28;20143;-77
2023/09/23 10:11:14;;;;;;;4.60;1.42;;;;;;;;;;4972770;28;20026;-78
2023/09/23 10:13:40;;;;;;;5.57;1.30;;;;;;;;;;4972705;28;20039;-78
2023/09/23 10:16:12;;;;;;;6.75;1.40;;;;;;;;;;4976971;28;20082;-80
2023/09/23 10:18:39;;;;;;;6.30;1.50;;;;;;;;;;4961534;28;20076;-80
2023/09/23 10:21:05;;;;;;;4.20;1.50;;;;;;;;;;4976065;28;20033;-80
2023/09/23 10:23:35;;;;;;;5.05;1.50;;;;;;;;;;4970000;28;20034;-79
2023/09/23 10:26:14;;;;;;;4.00;1.48;;;;;;;;;;4974713;28;20118;-80
2023/09/23 10:28:40;;;;;;;4.70;1.50;;;;;;;;;;4966008;28;20095;-80
2023/09/23 10:31:10;;;;;;;4.70;1.50;;;;;;;;;;4969152;28;20023;-81
2023/09/23 10:33:36;;;;;;;3.40;1.40;;;;;;;;;;4976324;28;20100;-79
2023/09/23 10:36:03;;;;;;;5.50;1.38;;;;;;;;;;4974066;28;20030;-80
2023/09/23 10:38:34;;;;;;;4.68;1.50;;;;;;;;;;4978843;28;20035;-82
2023/09/23 10:41:00;;;;;;;3.42;1.20;;;;;;;;;;4979026;28;20273;-77
2023/09/23 10:43:26;;;;;;;2.38;1.23;;;;;;;;;;4980524;28;20062;-78
2023/09/23 10:45:57;;;;;;;6.20;1.70;;;;;;;;;;4979126;28;20149;-78
2023/09/23 10:48:22;;;;;;;3.97;1.30;;;;;;;;;;4973991;28;20026;-78
2023/09/23 10:50:50;;;;;;;4.03;1.50;;;;;;;;;;4976128;28;20033;-79
2023/09/23 10:53:15;;;;;;;4.75;1.30;;;;;;;;;;4969450;28;20794;-79
2023/09/23 10:55:41;;;;;;;5.85;1.35;;;;;;;;;;4968896;28;20110;-78
2023/09/23 10:58:10;;;;;;;4.32;1.33;;;;;;;;;;4963251;28;20058;-79
2023/09/23 11:00:37;;;;;;;5.28;1.50;;;;;;;;;;4963913;28;20025;-79
2023/09/23 11:03:08;;;;;;;6.10;1.40;;;;;;;;;;4976671;28;20050;-78
2023/09/23 11:05:39;;;;;;;7.35;1.40;;;;;;;;;;4966881;28;20085;-77
2023/09/23 11:08:07;;;;;;;5.32;1.42;;;;;;;;;;4959817;28;20027;-78
2023/09/23 11:10:34;;;;;;;2.75;1.35;;;;;;;;;;4956505;28;20028;-77
2023/09/23 11:13:00;;;;;;;5.63;1.50;;;;;;;;;;4965217;28;20388;-77
2023/09/23 11:15:25;;;;;;;5.47;1.48;;;;;;;;;;4975540;28;20042;-78
2023/09/23 11:17:54;;;;;;;5.82;1.50;;;;;;;;;;4980169;28;20043;-78
2023/09/23 11:20:27;;;;;;;3.55;1.40;;;;;;;;;;4976038;28;20254;-78
2023/09/23 11:22:57;;;;;;;4.53;1.42;;;;;;;;;;4968939;28;20053;-79
2023/09/23 11:25:24;;;;;;;4.68;1.50;;;;;;;;;;4979701;28;20070;-78
2023/09/23 11:27:51;;;;;;;4.85;1.40;;;;;;;;;;4978474;28;20109;-77
2023/09/23 11:30:23;;;;;;;3.65;1.27;;;;;;;;;;4979523;28;20039;-77
2023/09/23 11:32:52;;;;;;;4.03;1.25;;;;;;;;;;4965253;28;20030;-77
2023/09/23 11:35:18;;;;;;;3.75;1.60;;;;;;;;;;4979794;28;20034;-77
2023/09/23 11:37:44;;;;;;;2.67;1.30;;;;;;;;;;4977488;28;20033;-77
2023/09/23 11:40:12;;;;;;;5.30;1.38;;;;;;;;;;4979691;28;20322;-77
2023/09/23 11:42:38;;;;;;;3.08;1.17;;;;;;;;;;4978740;28;20026;-77
2023/09/23 11:45:03;;;;;;;4.75;1.13;;;;;;;;;;4980240;28;20047;-76
2023/09/23 11:47:29;;;;;;;3.53;1.20;;;;;;;;;;4981605;28;20042;-75
2023/09/23 11:49:54;;;;;;;4.28;1.27;;;;;;;;;;4978975;28;20285;-75
2023/09/23 11:52:19;;;;;;;2.75;1.15;;;;;;;;;;4978348;28;20655;-76
2023/09/23 11:54:45;;;;;;;4.07;1.42;;;;;;;;;;4980710;28;20043;-75
2023/09/23 11:57:11;;;;;;;4.65;1.25;;;;;;;;;;4980272;28;20097;-75
2023/09/23 11:59:36;;;;;;;3.85;1.30;;;;;;;;;;4978030;28;20030;-75
2023/09/23 12:02:02;;;;;;;3.88;1.20;;;;;;;;;;4982002;28;20069;-75
2023/09/23 12:04:27;;;;;;;4.65;1.33;;;;;;;;;;4980398;28;20038;-75
2023/09/23 12:06:53;;;;;;;2.13;1.10;;;;;;;;;;4979118;28;20022;-75
2023/09/23 12:09:18;;;;;;;4.30;1.33;;;;;;;;;;4975141;28;20262;-75
2023/09/23 12:11:44;;;;;;;3.42;1.20;;;;;;;;;;4981425;28;20102;-75
2023/09/23 12:14:12;;;;;;;2.45;1.10;;;;;;;;;;4980794;28;20030;-75
2023/09/23 12:16:37;;;;;;;3.25;1.40;;;;;;;;;;4980504;28;20449;-74
2023/09/23 12:19:02;;;;;;;4.88;1.48;;;;;;;;;;4980051;28;20043;-75
2023/09/23 12:21:30;;;;;;;3.08;1.20;;;;;;;;;;4979424;28;20330;-75
2023/09/23 12:23:59;;;;;;;4.78;1.40;;;;;;;;;;4973768;28;20034;-78
2023/09/23 12:26:28;;;;;;;2.40;1.23;;;;;;;;;;4978121;28;20034;-76
2023/09/23 12:28:54;;;;;;;2.38;1.20;;;;;;;;;;4976518;28;20570;-77
2023/09/23 12:31:19;;;;;;;3.75;1.25;;;;;;;;;;4977178;28;20026;-76
2023/09/23 12:33:45;;;;;;;2.97;1.25;;;;;;;;;;4977656;28;20234;-76
2023/09/23 12:36:11;;;;;;;5.03;1.33;;;;;;;;;;4969550;28;20109;-77
2023/09/23 12:38:37;;;;;;;3.08;1.35;;;;;;;;;;4974479;28;20019;-77
2023/09/23 12:41:03;;;;;;;6.93;1.60;;;;;;;;;;4982566;28;20101;-77
2023/09/23 12:43:28;;;;;;;5.15;1.38;;;;;;;;;;4979914;28;20062;-77
2023/09/23 12:45:54;;;;;;;3.53;1.50;;;;;;;;;;4981163;28;20070;-74
2023/09/23 12:48:19;;;;;;;4.93;1.50;;;;;;;;;;4975562;28;20296;-74
2023/09/23 12:50:45;;;;;;;4.60;1.60;;;;;;;;;;4970370;28;20062;-74
2023/09/23 12:53:30;;;;;;;8.38;1.83;;;;;;;;;;4963230;28;20152;-74
2023/09/23 12:56:04;;;;;;;4.88;1.60;;;;;;;;;;4963398;28;20045;-74
2023/09/23 12:58:34;;;;;;;3.42;1.50;;;;;;;;;;4968244;28;20018;-83
2023/09/23 13:01:00;;;;;;;7.38;1.50;;;;;;;;;;4970244;28;20037;-78
2023/09/23 13:03:27;;;;;;;3.63;1.30;;;;;;;;;;4962560;28;20022;-76
2023/09/23 13:05:59;;;;;;;5.43;1.60;;;;;;;;;;4970821;28;20031;-78
2023/09/23 13:08:25;;;;;;;4.93;1.50;;;;;;;;;;4970222;28;20031;-79
2023/09/23 13:10:53;;;;;;;3.83;1.30;;;;;;;;;;4971980;28;20031;-77
2023/09/23 13:13:23;;;;;;;5.03;1.42;;;;;;;;;;4971160;28;20122;-78
2023/09/23 13:15:48;;;;;;;6.63;2.33;;;;;;;;;;4961809;28;20102;-78
2023/09/23 13:18:16;;;;;;;4.95;1.60;;;;;;;;;;4958297;28;20122;-74
2023/09/23 13:20:42;;;;;;;5.85;2.25;;;;;;;;;;4962470;28;20280;-75
2023/09/23 13:23:07;;;;;;;4.25;1.50;;;;;;;;;;4974371;28;20508;-75
2023/09/23 13:25:33;;;;;;;5.05;1.50;;;;;;;;;;4973678;28;20026;-74
2023/09/23 13:27:58;;;;;;;6.63;2.10;;;;;;;;;;4971291;28;20530;-75
2023/09/23 13:30:24;;;;;;;8.65;1.65;;;;;;;;;;4960461;28;20041;-75
2023/09/23 13:32:49;;;;;;;4.63;1.50;;;;;;;;;;4970911;28;20034;-76
2023/09/23 13:35:15;;;;;;;5.32;1.73;;;;;;;;;;4970585;28;20042;-77
2023/09/23 13:37:40;;;;;;;4.35;1.50;;;;;;;;;;4959909;28;20447;-75
2023/09/23 13:40:06;;;;;;;5.50;1.45;;;;;;;;;;4971622;28;20069;-75
2023/09/23 13:42:32;;;;;;;4.82;1.45;;;;;;;;;;4979921;28;20322;-77
2023/09/23 13:44:57;;;;;;;4.43;1.40;;;;;;;;;;4971951;28;20042;-75
2023/09/23 13:47:22;;;;;;;5.70;1.40;;;;;;;;;;4966076;28;20034;-75
2023/09/23 13:49:51;;;;;;;5.38;1.50;;;;;;;;;;4960932;28;20067;-75
2023/09/23 13:52:17;;;;;;;6.28;1.40;;;;;;;;;;4968439;28;20031;-75
2023/09/23 13:54:42;;;;;;;3.85;1.40;;;;;;;;;;4970390;28;20030;-75
2023/09/23 13:57:07;;;;;;;4.00;1.42;;;;;;;;;;4970742;28;20026;-75
2023/09/23 13:59:33;;;;;;;4.30;1.30;;;;;;;;;;4970541;28;20038;-75
2023/09/23 14:02:02;;;;;;;4.05;1.30;;;;;;;;;;4970896;28;20058;-77
2023/09/23 14:04:35;;;;;;;2.05;1.10;;;;;;;;;;4969505;28;20114;-77
2023/09/23 14:07:01;;;;;;;5.00;1.40;;;;;;;;;;4969037;28;20435;-77
2023/09/23 14:09:27;;;;;;;2.97;1.30;;;;;;;;;;4969321;28;20022;-76
2023/09/23 14:11:52;;;;;;;3.85;1.20;;;;;;;;;;4971348;28;20034;-76
2023/09/23 14:14:18;;;;;;;3.38;1.40;;;;;;;;;;4970398;28;20387;-76
2023/09/23 14:16:52;;;;;;;6.07;1.20;;;;;;;;;;4971048;28;20050;-76
2023/09/23 14:19:17;;;;;;;3.53;1.40;;;;;;;;;;4966710;28;20035;-75
2023/09/23 14:21:43;;;;;;;5.80;1.48;;;;;;;;;;4953999;28;20027;-75
2023/09/23 14:24:09;;;;;;;4.35;1.30;;;;;;;;;;4975869;28;20023;-75
2023/09/23 14:26:36;;;;;;;3.50;1.55;;;;;;;;;;4981641;28;20419;-76
2023/09/23 14:29:02;;;;;;;4.20;1.30;;;;;;;;;;4969327;28;20113;-77
2023/09/23 14:31:28;;;;;;;2.45;1.20;;;;;;;;;;4968607;28;20129;-77
2023/09/23 14:33:54;;;;;;;3.78;1.30;;;;;;;;;;4969832;28;20082;-78
2023/09/23 14:36:19;;;;;;;4.57;1.40;;;;;;;;;;4955381;28;20030;-77
2023/09/23 14:38:50;;;;;;;3.88;1.50;;;;;;;;;;4966848;28;20054;-77
2023/09/23 14:41:16;;;;;;;5.40;1.48;;;;;;;;;;4962872;28;20031;-77